sensor_id;sensor_type;location;lat;lon;timestamp;temperature;humidity
23721;DHT22;42950;52.134;5.578;2022-12-18T00:01:16;-2.30;99.90
23721;DHT22;42950;52.134;5.578;2022-12-18T00:03:42;-2.30;99.90
23721;DHT22;42950;52.134;5.578;2022-12-18T00:06:08;-2.30;99.90
23721;DHT22;42950;52.134;5.578;2022-12-18T00:08:34;-2.30;99.90
23721;DHT22;42950;52.134;5.578;2022-12-18T00:11:04;-2.30;99.90
23721;DHT22;42950;52.134;5.578;2022-12-18T00:13:30;-2.40;99.90
23721;DHT22;42950;52.134;5.578;2022-12-18T00:16:05;-2.50;99.90
23721;DHT22;42950;52.134;5.578;2022-12-18T00:18:32;-2.60;99.90
23721;DHT22;42950;52.134;5.578;2022-12-18T00:21:02;-2.60;99.90
23721;DHT22;42950;52.134;5.578;2022-12-18T00:23:29;-2.60;99.90
23721;DHT22;42950;52.134;5.578;2022-12-18T00:26:01;-2.60;99.90
23721;DHT22;42950;52.134;5.578;2022-12-18T00:28:27;-2.60;99.90
23721;DHT22;42950;52.134;5.578;2022-12-18T00:31:07;-2.60;99.90
23721;DHT22;42950;52.134;5.578;2022-12-18T00:33:34;-2.70;99.90
23721;DHT22;42950;52.134;5.578;2022-12-18T00:36:10;-2.70;99.90
23721;DHT22;42950;52.134;5.578;2022-12-18T00:38:37;-2.70;99.90
23721;DHT22;42950;52.134;5.578;2022-12-18T00:41:02;-2.70;99.90
23721;DHT22;42950;52.134;5.578;2022-12-18T00:43:28;-2.70;99.90
23721;DHT22;42950;52.134;5.578;2022-12-18T00:45:54;-2.70;99.90
23721;DHT22;42950;52.134;5.578;2022-12-18T00:48:20;-2.70;99.90
23721;DHT22;42950;52.134;5.578;2022-12-18T00:50:48;-2.60;99.90
23721;DHT22;42950;52.134;5.578;2022-12-18T00:53:13;-2.60;99.90
23721;DHT22;42950;52.134;5.578;2022-12-18T00:55:40;-2.50;99.90
23721;DHT22;42950;52.134;5.578;2022-12-18T00:58:06;-2.60;99.90
23721;DHT22;42950;52.134;5.578;2022-12-18T01:00:32;-2.50;99.90
23721;DHT22;42950;52.134;5.578;2022-12-18T01:02:57;-2.60;99.90
23721;DHT22;42950;52.134;5.578;2022-12-18T01:05:23;-2.60;99.90
23721;DHT22;42950;52.134;5.578;2022-12-18T01:07:49;-2.60;99.90
23721;DHT22;42950;52.134;5.578;2022-12-18T01:10:14;-2.60;99.90
23721;DHT22;42950;52.134;5.578;2022-12-18T01:12:40;-2.70;99.90
23721;DHT22;42950;52.134;5.578;2022-12-18T01:15:07;-2.70;99.90
23721;DHT22;42950;52.134;5.578;2022-12-18T01:17:33;-2.80;99.90
23721;DHT22;42950;52.134;5.578;2022-12-18T01:19:58;-2.80;99.90
23721;DHT22;42950;52.134;5.578;2022-12-18T01:22:24;-2.90;99.90
23721;DHT22;42950;52.134;5.578;2022-12-18T01:24:50;-2.80;99.90
23721;DHT22;42950;52.134;5.578;2022-12-18T01:27:15;-2.90;99.90
23721;DHT22;42950;52.134;5.578;2022-12-18T01:29:41;-2.90;99.90
23721;DHT22;42950;52.134;5.578;2022-12-18T01:32:06;-2.90;99.90
23721;DHT22;42950;52.134;5.578;2022-12-18T01:34:32;-2.80;99.90
23721;DHT22;42950;52.134;5.578;2022-12-18T01:36:58;-2.80;99.90
23721;DHT22;42950;52.134;5.578;2022-12-18T01:39:23;-2.90;99.90
23721;DHT22;42950;52.134;5.578;2022-12-18T01:41:49;-2.90;99.90
23721;DHT22;42950;52.134;5.578;2022-12-18T01:44:55;-2.90;99.90
23721;DHT22;42950;52.134;5.578;2022-12-18T01:52:43;-3.10;99.90
23721;DHT22;42950;52.134;5.578;2022-12-18T01:55:11;-3.10;99.90
23721;DHT22;42950;52.134;5.578;2022-12-18T01:57:38;-3.10;99.90
23721;DHT22;42950;52.134;5.578;2022-12-18T02:00:08;-3.00;99.90
23721;DHT22;42950;52.134;5.578;2022-12-18T02:02:34;-3.10;99.90
23721;DHT22;42950;52.134;5.578;2022-12-18T02:05:00;-3.00;99.90
23721;DHT22;42950;52.134;5.578;2022-12-18T02:10:28;-3.00;99.90
23721;DHT22;42950;52.134;5.578;2022-12-18T02:16:03;-3.10;99.90
23721;DHT22;42950;52.134;5.578;2022-12-18T02:18:35;-3.10;99.90
23721;DHT22;42950;52.134;5.578;2022-12-18T02:21:23;-3.10;99.90
23721;DHT22;42950;52.134;5.578;2022-12-18T02:26:45;-3.10;99.90
23721;DHT22;42950;52.134;5.578;2022-12-18T02:29:24;-3.10;99.90
23721;DHT22;42950;52.134;5.578;2022-12-18T02:31:54;-3.10;99.90
23721;DHT22;42950;52.134;5.578;2022-12-18T02:34:25;-3.10;99.90
23721;DHT22;42950;52.134;5.578;2022-12-18T02:36:53;-3.10;99.90
23721;DHT22;42950;52.134;5.578;2022-12-18T02:39:21;-3.10;99.90
23721;DHT22;42950;52.134;5.578;2022-12-18T02:41:48;-3.10;99.90
23721;DHT22;42950;52.134;5.578;2022-12-18T02:44:14;-3.10;99.90
23721;DHT22;42950;52.134;5.578;2022-12-18T02:46:45;-3.10;99.90
23721;DHT22;42950;52.134;5.578;2022-12-18T02:57:34;-3.30;99.90
23721;DHT22;42950;52.134;5.578;2022-12-18T03:00:11;-3.30;99.90
23721;DHT22;42950;52.134;5.578;2022-12-18T03:02:48;-3.30;99.90
23721;DHT22;42950;52.134;5.578;2022-12-18T03:05:23;-3.40;99.90
23721;DHT22;42950;52.134;5.578;2022-12-18T03:10:28;-3.40;99.90
23721;DHT22;42950;52.134;5.578;2022-12-18T03:13:02;-3.50;99.90
23721;DHT22;42950;52.134;5.578;2022-12-18T03:15:31;-3.40;99.90
23721;DHT22;42950;52.134;5.578;2022-12-18T03:18:07;-3.50;99.90
23721;DHT22;42950;52.134;5.578;2022-12-18T03:20:34;-3.60;99.90
23721;DHT22;42950;52.134;5.578;2022-12-18T03:23:15;-3.60;99.90
23721;DHT22;42950;52.134;5.578;2022-12-18T03:25:43;-3.60;99.90
23721;DHT22;42950;52.134;5.578;2022-12-18T03:28:15;-3.70;99.90
23721;DHT22;42950;52.134;5.578;2022-12-18T03:30:44;-3.70;99.90
23721;DHT22;42950;52.134;5.578;2022-12-18T03:33:19;-3.80;99.90
23721;DHT22;42950;52.134;5.578;2022-12-18T03:35:47;-3.80;99.90
23721;DHT22;42950;52.134;5.578;2022-12-18T03:38:13;-3.80;99.90
23721;DHT22;42950;52.134;5.578;2022-12-18T03:52:35;-4.00;99.90
23721;DHT22;42950;52.134;5.578;2022-12-18T03:55:03;-4.00;99.90
23721;DHT22;42950;52.134;5.578;2022-12-18T03:57:31;-4.00;99.90
23721;DHT22;42950;52.134;5.578;2022-12-18T04:00:23;-4.00;99.90
23721;DHT22;42950;52.134;5.578;2022-12-18T04:02:52;-4.00;99.90
23721;DHT22;42950;52.134;5.578;2022-12-18T04:05:19;-4.00;99.90
23721;DHT22;42950;52.134;5.578;2022-12-18T04:07:47;-4.10;99.90
23721;DHT22;42950;52.134;5.578;2022-12-18T04:10:16;-4.00;99.90
23721;DHT22;42950;52.134;5.578;2022-12-18T04:12:42;-4.00;99.90
23721;DHT22;42950;52.134;5.578;2022-12-18T04:15:08;-4.00;99.90
23721;DHT22;42950;52.134;5.578;2022-12-18T04:17:34;-3.90;99.90
23721;DHT22;42950;52.134;5.578;2022-12-18T04:20:00;-3.90;99.90
23721;DHT22;42950;52.134;5.578;2022-12-18T04:22:26;-3.90;99.90
23721;DHT22;42950;52.134;5.578;2022-12-18T04:24:52;-3.90;99.90
23721;DHT22;42950;52.134;5.578;2022-12-18T04:27:17;-4.00;99.90
23721;DHT22;42950;52.134;5.578;2022-12-18T04:29:43;-4.10;99.90
23721;DHT22;42950;52.134;5.578;2022-12-18T04:32:09;-4.10;99.90
23721;DHT22;42950;52.134;5.578;2022-12-18T04:34:34;-4.10;99.90
23721;DHT22;42950;52.134;5.578;2022-12-18T04:37:00;-4.20;99.90
23721;DHT22;42950;52.134;5.578;2022-12-18T04:39:25;-4.20;99.90
23721;DHT22;42950;52.134;5.578;2022-12-18T04:41:51;-4.20;99.90
23721;DHT22;42950;52.134;5.578;2022-12-18T04:44:16;-4.30;99.90
23721;DHT22;42950;52.134;5.578;2022-12-18T04:46:42;-4.30;99.90
23721;DHT22;42950;52.134;5.578;2022-12-18T04:49:08;-4.40;99.90
23721;DHT22;42950;52.134;5.578;2022-12-18T04:51:35;-4.40;99.90
23721;DHT22;42950;52.134;5.578;2022-12-18T04:54:01;-4.30;99.90
23721;DHT22;42950;52.134;5.578;2022-12-18T04:56:27;-4.30;99.90
23721;DHT22;42950;52.134;5.578;2022-12-18T04:58:53;-4.30;99.90
23721;DHT22;42950;52.134;5.578;2022-12-18T05:01:18;-4.30;99.90
23721;DHT22;42950;52.134;5.578;2022-12-18T05:03:44;-4.30;99.90
23721;DHT22;42950;52.134;5.578;2022-12-18T05:06:10;-4.40;99.90
23721;DHT22;42950;52.134;5.578;2022-12-18T05:08:35;-4.40;99.90
23721;DHT22;42950;52.134;5.578;2022-12-18T05:11:07;-4.40;99.90
23721;DHT22;42950;52.134;5.578;2022-12-18T05:13:33;-4.40;99.90
23721;DHT22;42950;52.134;5.578;2022-12-18T05:15:59;-4.40;99.90
23721;DHT22;42950;52.134;5.578;2022-12-18T05:18:25;-4.50;99.90
23721;DHT22;42950;52.134;5.578;2022-12-18T05:20:52;-4.50;99.90
23721;DHT22;42950;52.134;5.578;2022-12-18T05:23:18;-4.50;99.90
23721;DHT22;42950;52.134;5.578;2022-12-18T05:25:54;-4.50;99.90
23721;DHT22;42950;52.134;5.578;2022-12-18T05:28:20;-4.50;99.90
23721;DHT22;42950;52.134;5.578;2022-12-18T05:30:50;-4.50;99.90
23721;DHT22;42950;52.134;5.578;2022-12-18T05:33:17;-4.40;99.90
23721;DHT22;42950;52.134;5.578;2022-12-18T05:35:43;-4.40;99.90
23721;DHT22;42950;52.134;5.578;2022-12-18T05:38:09;-4.40;99.90
23721;DHT22;42950;52.134;5.578;2022-12-18T05:40:35;-4.30;99.90
23721;DHT22;42950;52.134;5.578;2022-12-18T05:43:01;-4.40;99.90
23721;DHT22;42950;52.134;5.578;2022-12-18T05:45:30;-4.40;99.90
23721;DHT22;42950;52.134;5.578;2022-12-18T05:47:55;-4.40;99.90
23721;DHT22;42950;52.134;5.578;2022-12-18T05:50:21;-4.40;99.90
23721;DHT22;42950;52.134;5.578;2022-12-18T05:52:46;-4.40;99.90
23721;DHT22;42950;52.134;5.578;2022-12-18T05:55:12;-4.40;99.90
23721;DHT22;42950;52.134;5.578;2022-12-18T05:57:37;-4.40;99.90
23721;DHT22;42950;52.134;5.578;2022-12-18T06:00:03;-4.50;99.90
23721;DHT22;42950;52.134;5.578;2022-12-18T06:02:29;-4.50;99.90
23721;DHT22;42950;52.134;5.578;2022-12-18T06:04:55;-4.50;99.90
23721;DHT22;42950;52.134;5.578;2022-12-18T06:07:20;-4.40;99.90
23721;DHT22;42950;52.134;5.578;2022-12-18T06:09:46;-4.40;99.90
23721;DHT22;42950;52.134;5.578;2022-12-18T06:12:11;-4.40;99.90
23721;DHT22;42950;52.134;5.578;2022-12-18T06:14:37;-4.30;99.90
23721;DHT22;42950;52.134;5.578;2022-12-18T06:17:02;-4.30;99.90
23721;DHT22;42950;52.134;5.578;2022-12-18T06:19:28;-4.30;99.90
23721;DHT22;42950;52.134;5.578;2022-12-18T06:21:53;-4.40;99.90
23721;DHT22;42950;52.134;5.578;2022-12-18T06:24:19;-4.40;99.90
23721;DHT22;42950;52.134;5.578;2022-12-18T06:26:44;-4.40;99.90
23721;DHT22;42950;52.134;5.578;2022-12-18T06:29:10;-4.30;99.90
23721;DHT22;42950;52.134;5.578;2022-12-18T06:31:35;-4.40;99.90
23721;DHT22;42950;52.134;5.578;2022-12-18T06:34:04;-4.40;99.90
23721;DHT22;42950;52.134;5.578;2022-12-18T06:36:30;-4.40;99.90
23721;DHT22;42950;52.134;5.578;2022-12-18T06:38:56;-4.40;99.90
23721;DHT22;42950;52.134;5.578;2022-12-18T06:41:22;-4.40;99.90
23721;DHT22;42950;52.134;5.578;2022-12-18T06:43:47;-4.40;99.90
23721;DHT22;42950;52.134;5.578;2022-12-18T06:46:13;-4.40;99.90
23721;DHT22;42950;52.134;5.578;2022-12-18T06:48:39;-4.40;99.90
23721;DHT22;42950;52.134;5.578;2022-12-18T06:51:05;-4.40;99.90
23721;DHT22;42950;52.134;5.578;2022-12-18T06:53:32;-4.50;99.90
23721;DHT22;42950;52.134;5.578;2022-12-18T06:56:05;-4.50;99.90
23721;DHT22;42950;52.134;5.578;2022-12-18T06:58:31;-4.50;99.90
23721;DHT22;42950;52.134;5.578;2022-12-18T07:01:01;-4.50;99.90
23721;DHT22;42950;52.134;5.578;2022-12-18T07:03:27;-4.50;99.90
23721;DHT22;42950;52.134;5.578;2022-12-18T07:05:53;-4.50;99.90
23721;DHT22;42950;52.134;5.578;2022-12-18T07:08:18;-4.50;99.90
23721;DHT22;42950;52.134;5.578;2022-12-18T07:10:44;-4.60;99.90
23721;DHT22;42950;52.134;5.578;2022-12-18T07:13:10;-4.60;99.90
23721;DHT22;42950;52.134;5.578;2022-12-18T07:15:36;-4.60;99.90
23721;DHT22;42950;52.134;5.578;2022-12-18T07:18:02;-4.60;99.90
23721;DHT22;42950;52.134;5.578;2022-12-18T07:20:27;-4.60;99.90
23721;DHT22;42950;52.134;5.578;2022-12-18T07:22:53;-4.70;99.90
23721;DHT22;42950;52.134;5.578;2022-12-18T07:25:18;-4.70;99.90
23721;DHT22;42950;52.134;5.578;2022-12-18T07:27:44;-4.70;99.90
23721;DHT22;42950;52.134;5.578;2022-12-18T07:30:10;-4.70;99.90
23721;DHT22;42950;52.134;5.578;2022-12-18T07:32:35;-4.60;99.90
23721;DHT22;42950;52.134;5.578;2022-12-18T07:35:01;-4.60;99.90
23721;DHT22;42950;52.134;5.578;2022-12-18T07:37:27;-4.60;99.90
23721;DHT22;42950;52.134;5.578;2022-12-18T07:39:52;-4.60;99.90
23721;DHT22;42950;52.134;5.578;2022-12-18T07:42:18;-4.50;99.90
23721;DHT22;42950;52.134;5.578;2022-12-18T07:44:56;-4.50;99.90
23721;DHT22;42950;52.134;5.578;2022-12-18T07:47:21;-4.40;99.90
23721;DHT22;42950;52.134;5.578;2022-12-18T07:49:47;-4.40;99.90
23721;DHT22;42950;52.134;5.578;2022-12-18T07:52:12;-4.40;99.90
23721;DHT22;42950;52.134;5.578;2022-12-18T07:54:38;-4.30;99.90
23721;DHT22;42950;52.134;5.578;2022-12-18T07:57:05;-4.30;99.90
23721;DHT22;42950;52.134;5.578;2022-12-18T07:59:31;-4.20;99.90
23721;DHT22;42950;52.134;5.578;2022-12-18T08:01:56;-4.10;99.90
23721;DHT22;42950;52.134;5.578;2022-12-18T08:04:22;-4.10;99.90
23721;DHT22;42950;52.134;5.578;2022-12-18T08:06:48;-4.10;99.90
23721;DHT22;42950;52.134;5.578;2022-12-18T08:09:13;-4.00;99.90
23721;DHT22;42950;52.134;5.578;2022-12-18T08:11:39;-4.00;99.90
23721;DHT22;42950;52.134;5.578;2022-12-18T08:14:04;-4.00;99.90
23721;DHT22;42950;52.134;5.578;2022-12-18T08:16:30;-3.90;99.90
23721;DHT22;42950;52.134;5.578;2022-12-18T08:18:56;-3.90;99.90
23721;DHT22;42950;52.134;5.578;2022-12-18T08:21:26;-3.80;99.90
23721;DHT22;42950;52.134;5.578;2022-12-18T08:23:54;-3.70;99.90
23721;DHT22;42950;52.134;5.578;2022-12-18T08:26:20;-3.70;99.90
23721;DHT22;42950;52.134;5.578;2022-12-18T08:28:46;-3.60;99.90
23721;DHT22;42950;52.134;5.578;2022-12-18T08:31:12;-3.50;99.90
23721;DHT22;42950;52.134;5.578;2022-12-18T08:33:38;-3.50;99.90
23721;DHT22;42950;52.134;5.578;2022-12-18T08:36:05;-3.30;99.90
23721;DHT22;42950;52.134;5.578;2022-12-18T08:38:33;-3.30;99.90
23721;DHT22;42950;52.134;5.578;2022-12-18T08:43:25;-3.20;99.90
23721;DHT22;42950;52.134;5.578;2022-12-18T08:46:14;-3.10;99.90
23721;DHT22;42950;52.134;5.578;2022-12-18T08:48:43;-3.00;99.90
23721;DHT22;42950;52.134;5.578;2022-12-18T08:51:09;-3.00;99.90
23721;DHT22;42950;52.134;5.578;2022-12-18T08:53:35;-2.90;99.90
23721;DHT22;42950;52.134;5.578;2022-12-18T08:56:02;-2.90;99.90
23721;DHT22;42950;52.134;5.578;2022-12-18T08:58:28;-2.90;99.90
23721;DHT22;42950;52.134;5.578;2022-12-18T09:00:53;-2.90;99.90
23721;DHT22;42950;52.134;5.578;2022-12-18T09:03:19;-2.80;99.90
23721;DHT22;42950;52.134;5.578;2022-12-18T09:05:47;-2.80;99.90
23721;DHT22;42950;52.134;5.578;2022-12-18T09:08:13;-2.70;99.90
23721;DHT22;42950;52.134;5.578;2022-12-18T09:10:47;-2.60;99.90
23721;DHT22;42950;52.134;5.578;2022-12-18T09:13:13;-2.60;99.90
23721;DHT22;42950;52.134;5.578;2022-12-18T09:16:06;-2.50;99.90
23721;DHT22;42950;52.134;5.578;2022-12-18T09:18:32;-2.40;99.90
23721;DHT22;42950;52.134;5.578;2022-12-18T09:20:58;-2.30;99.90
23721;DHT22;42950;52.134;5.578;2022-12-18T09:23:23;-2.30;99.90
23721;DHT22;42950;52.134;5.578;2022-12-18T09:25:49;-2.20;99.90
23721;DHT22;42950;52.134;5.578;2022-12-18T09:28:16;-2.20;99.90
23721;DHT22;42950;52.134;5.578;2022-12-18T09:30:48;-2.10;99.90
23721;DHT22;42950;52.134;5.578;2022-12-18T09:33:14;-2.10;99.90
23721;DHT22;42950;52.134;5.578;2022-12-18T09:35:42;-2.10;99.90
23721;DHT22;42950;52.134;5.578;2022-12-18T09:38:12;-2.00;99.90
23721;DHT22;42950;52.134;5.578;2022-12-18T09:40:52;-2.00;99.90
23721;DHT22;42950;52.134;5.578;2022-12-18T09:43:24;-1.90;99.90
23721;DHT22;42950;52.134;5.578;2022-12-18T09:46:01;-1.90;99.90
23721;DHT22;42950;52.134;5.578;2022-12-18T09:48:35;-1.90;99.90
23721;DHT22;42950;52.134;5.578;2022-12-18T09:51:15;-1.80;99.90
23721;DHT22;42950;52.134;5.578;2022-12-18T09:53:49;-1.70;99.90
23721;DHT22;42950;52.134;5.578;2022-12-18T09:56:19;-1.60;99.90
23721;DHT22;42950;52.134;5.578;2022-12-18T09:59:00;-1.50;99.90
23721;DHT22;42950;52.134;5.578;2022-12-18T10:01:27;-1.50;99.90
23721;DHT22;42950;52.134;5.578;2022-12-18T10:03:53;-1.50;99.90
23721;DHT22;42950;52.134;5.578;2022-12-18T10:06:36;-1.50;99.90
23721;DHT22;42950;52.134;5.578;2022-12-18T10:14:34;-1.30;99.90
23721;DHT22;42950;52.134;5.578;2022-12-18T10:17:41;-1.30;99.90
23721;DHT22;42950;52.134;5.578;2022-12-18T10:20:29;-1.20;99.90
23721;DHT22;42950;52.134;5.578;2022-12-18T10:25:44;-1.10;99.90
23721;DHT22;42950;52.134;5.578;2022-12-18T10:28:15;-1.10;99.90
23721;DHT22;42950;52.134;5.578;2022-12-18T10:30:42;-1.00;99.90
23721;DHT22;42950;52.134;5.578;2022-12-18T10:33:19;-1.00;99.90
23721;DHT22;42950;52.134;5.578;2022-12-18T10:35:45;-0.90;99.90
23721;DHT22;42950;52.134;5.578;2022-12-18T10:43:21;-0.80;99.90
23721;DHT22;42950;52.134;5.578;2022-12-18T10:51:06;-0.60;99.90
23721;DHT22;42950;52.134;5.578;2022-12-18T10:53:34;-0.60;99.90
23721;DHT22;42950;52.134;5.578;2022-12-18T10:56:02;-0.60;99.90
23721;DHT22;42950;52.134;5.578;2022-12-18T10:58:33;-0.60;99.90
23721;DHT22;42950;52.134;5.578;2022-12-18T11:01:14;-0.60;99.90
23721;DHT22;42950;52.134;5.578;2022-12-18T11:03:44;-0.50;99.90
23721;DHT22;42950;52.134;5.578;2022-12-18T11:08:42;-0.50;99.90
23721;DHT22;42950;52.134;5.578;2022-12-18T11:11:21;-0.40;99.90
23721;DHT22;42950;52.134;5.578;2022-12-18T11:14:12;-0.40;99.90
23721;DHT22;42950;52.134;5.578;2022-12-18T11:16:44;-0.40;99.90
23721;DHT22;42950;52.134;5.578;2022-12-18T11:19:24;-0.30;99.90
23721;DHT22;42950;52.134;5.578;2022-12-18T11:21:51;-0.30;99.90
23721;DHT22;42950;52.134;5.578;2022-12-18T11:24:22;-0.30;99.90
23721;DHT22;42950;52.134;5.578;2022-12-18T11:26:50;-0.20;99.90
23721;DHT22;42950;52.134;5.578;2022-12-18T11:29:19;-0.20;99.90
23721;DHT22;42950;52.134;5.578;2022-12-18T11:31:48;-0.20;99.90
23721;DHT22;42950;52.134;5.578;2022-12-18T11:34:19;-0.20;99.90
23721;DHT22;42950;52.134;5.578;2022-12-18T11:36:48;0.00;99.90
23721;DHT22;42950;52.134;5.578;2022-12-18T11:41:53;0.00;99.90
23721;DHT22;42950;52.134;5.578;2022-12-18T11:44:59;0.00;99.90
23721;DHT22;42950;52.134;5.578;2022-12-18T11:50:17;0.10;99.90
23721;DHT22;42950;52.134;5.578;2022-12-18T11:52:43;0.10;99.90
23721;DHT22;42950;52.134;5.578;2022-12-18T11:55:35;0.20;99.90
23721;DHT22;42950;52.134;5.578;2022-12-18T12:09:22;0.20;99.90
23721;DHT22;42950;52.134;5.578;2022-12-18T12:11:57;0.30;99.90
23721;DHT22;42950;52.134;5.578;2022-12-18T12:14:55;0.40;99.90
23721;DHT22;42950;52.134;5.578;2022-12-18T12:17:34;0.50;99.90
23721;DHT22;42950;52.134;5.578;2022-12-18T12:20:20;0.40;99.90
23721;DHT22;42950;52.134;5.578;2022-12-18T12:23:06;0.50;99.90
23721;DHT22;42950;52.134;5.578;2022-12-18T12:25:45;0.50;99.90
23721;DHT22;42950;52.134;5.578;2022-12-18T12:31:11;0.40;99.90
23721;DHT22;42950;52.134;5.578;2022-12-18T12:36:31;0.50;99.90
23721;DHT22;42950;52.134;5.578;2022-12-18T12:39:10;0.60;99.90
23721;DHT22;42950;52.134;5.578;2022-12-18T12:41:39;0.60;99.90
23721;DHT22;42950;52.134;5.578;2022-12-18T12:44:37;0.70;99.90
23721;DHT22;42950;52.134;5.578;2022-12-18T12:47:14;0.60;99.90
23721;DHT22;42950;52.134;5.578;2022-12-18T12:49:45;0.60;99.90
23721;DHT22;42950;52.134;5.578;2022-12-18T12:52:32;0.60;99.90
23721;DHT22;42950;52.134;5.578;2022-12-18T12:54:59;0.70;99.90
23721;DHT22;42950;52.134;5.578;2022-12-18T12:57:36;0.70;99.90
23721;DHT22;42950;52.134;5.578;2022-12-18T13:00:08;0.70;99.90
23721;DHT22;42950;52.134;5.578;2022-12-18T13:08:07;0.80;99.90
23721;DHT22;42950;52.134;5.578;2022-12-18T13:13:13;0.80;99.90
23721;DHT22;42950;52.134;5.578;2022-12-18T13:15:43;0.80;99.90
23721;DHT22;42950;52.134;5.578;2022-12-18T13:20:35;0.80;99.90
23721;DHT22;42950;52.134;5.578;2022-12-18T13:25:52;0.80;99.90
23721;DHT22;42950;52.134;5.578;2022-12-18T13:30:58;0.90;99.90
23721;DHT22;42950;52.134;5.578;2022-12-18T13:36:02;0.90;99.90
23721;DHT22;42950;52.134;5.578;2022-12-18T13:43:33;0.90;99.90
23721;DHT22;42950;52.134;5.578;2022-12-18T13:48:32;1.00;99.90
23721;DHT22;42950;52.134;5.578;2022-12-18T13:51:06;1.00;99.90
23721;DHT22;42950;52.134;5.578;2022-12-18T13:53:41;1.00;99.90
23721;DHT22;42950;52.134;5.578;2022-12-18T13:56:08;1.00;99.90
23721;DHT22;42950;52.134;5.578;2022-12-18T13:58:34;0.90;99.90
23721;DHT22;42950;52.134;5.578;2022-12-18T14:01:00;0.90;99.90
23721;DHT22;42950;52.134;5.578;2022-12-18T14:03:28;0.90;99.90
23721;DHT22;42950;52.134;5.578;2022-12-18T14:05:58;0.90;99.90
23721;DHT22;42950;52.134;5.578;2022-12-18T14:08:27;0.90;99.90
23721;DHT22;42950;52.134;5.578;2022-12-18T14:10:54;0.90;99.90
23721;DHT22;42950;52.134;5.578;2022-12-18T14:13:32;0.90;99.90
23721;DHT22;42950;52.134;5.578;2022-12-18T14:16:01;0.90;99.90
23721;DHT22;42950;52.134;5.578;2022-12-18T14:18:42;0.90;99.90
23721;DHT22;42950;52.134;5.578;2022-12-18T14:21:25;0.90;99.90
23721;DHT22;42950;52.134;5.578;2022-12-18T14:24:20;0.90;99.90
23721;DHT22;42950;52.134;5.578;2022-12-18T14:26:48;0.90;99.90
23721;DHT22;42950;52.134;5.578;2022-12-18T14:32:15;0.90;99.90
23721;DHT22;42950;52.134;5.578;2022-12-18T14:34:52;0.90;99.90
23721;DHT22;42950;52.134;5.578;2022-12-18T14:37:26;0.90;99.90
23721;DHT22;42950;52.134;5.578;2022-12-18T14:39:57;0.90;99.90
23721;DHT22;42950;52.134;5.578;2022-12-18T14:42:24;0.90;99.90
23721;DHT22;42950;52.134;5.578;2022-12-18T14:47:58;0.90;99.90
23721;DHT22;42950;52.134;5.578;2022-12-18T14:50:25;0.90;99.90
23721;DHT22;42950;52.134;5.578;2022-12-18T14:52:51;0.90;99.90
23721;DHT22;42950;52.134;5.578;2022-12-18T14:55:17;0.90;99.90
23721;DHT22;42950;52.134;5.578;2022-12-18T14:57:44;0.90;99.90
23721;DHT22;42950;52.134;5.578;2022-12-18T15:00:18;0.80;99.90
23721;DHT22;42950;52.134;5.578;2022-12-18T15:02:46;0.80;99.90
23721;DHT22;42950;52.134;5.578;2022-12-18T15:07:46;0.80;99.90
23721;DHT22;42950;52.134;5.578;2022-12-18T15:13:06;0.80;99.90
23721;DHT22;42950;52.134;5.578;2022-12-18T15:26:05;0.90;99.90
23721;DHT22;42950;52.134;5.578;2022-12-18T15:28:36;0.80;99.90
23721;DHT22;42950;52.134;5.578;2022-12-18T15:33:45;0.80;99.90
23721;DHT22;42950;52.134;5.578;2022-12-18T15:36:13;0.80;99.90
23721;DHT22;42950;52.134;5.578;2022-12-18T15:38:40;0.80;99.90
23721;DHT22;42950;52.134;5.578;2022-12-18T15:41:05;0.70;99.90
23721;DHT22;42950;52.134;5.578;2022-12-18T15:43:31;0.80;99.90
23721;DHT22;42950;52.134;5.578;2022-12-18T15:46:14;0.80;99.90
23721;DHT22;42950;52.134;5.578;2022-12-18T15:48:45;0.80;99.90
23721;DHT22;42950;52.134;5.578;2022-12-18T15:51:18;0.80;99.90
23721;DHT22;42950;52.134;5.578;2022-12-18T15:53:50;0.80;99.90
23721;DHT22;42950;52.134;5.578;2022-12-18T15:56:16;0.80;99.90
23721;DHT22;42950;52.134;5.578;2022-12-18T15:59:01;0.70;99.90
23721;DHT22;42950;52.134;5.578;2022-12-18T16:01:29;0.80;99.90
23721;DHT22;42950;52.134;5.578;2022-12-18T16:03:55;0.80;99.90
23721;DHT22;42950;52.134;5.578;2022-12-18T16:06:22;0.80;99.90
23721;DHT22;42950;52.134;5.578;2022-12-18T16:08:48;0.80;99.90
23721;DHT22;42950;52.134;5.578;2022-12-18T16:11:25;0.70;99.90
23721;DHT22;42950;52.134;5.578;2022-12-18T16:14:17;0.70;99.90
23721;DHT22;42950;52.134;5.578;2022-12-18T16:16:44;0.70;99.90
23721;DHT22;42950;52.134;5.578;2022-12-18T16:19:10;0.70;99.90
23721;DHT22;42950;52.134;5.578;2022-12-18T16:21:35;0.70;99.90
23721;DHT22;42950;52.134;5.578;2022-12-18T16:24:02;0.70;99.90
23721;DHT22;42950;52.134;5.578;2022-12-18T16:26:27;0.70;99.90
23721;DHT22;42950;52.134;5.578;2022-12-18T16:28:53;0.70;99.90
23721;DHT22;42950;52.134;5.578;2022-12-18T16:31:19;0.70;99.90
23721;DHT22;42950;52.134;5.578;2022-12-18T16:33:44;0.70;99.90
23721;DHT22;42950;52.134;5.578;2022-12-18T16:36:10;0.70;99.90
23721;DHT22;42950;52.134;5.578;2022-12-18T16:38:35;0.70;99.90
23721;DHT22;42950;52.134;5.578;2022-12-18T16:41:01;0.80;99.90
23721;DHT22;42950;52.134;5.578;2022-12-18T16:43:45;0.70;99.90
23721;DHT22;42950;52.134;5.578;2022-12-18T16:46:10;0.70;99.90
23721;DHT22;42950;52.134;5.578;2022-12-18T16:48:36;0.60;99.90
23721;DHT22;42950;52.134;5.578;2022-12-18T16:51:03;0.70;99.90
23721;DHT22;42950;52.134;5.578;2022-12-18T16:53:29;0.70;99.90
23721;DHT22;42950;52.134;5.578;2022-12-18T16:55:55;0.70;99.90
23721;DHT22;42950;52.134;5.578;2022-12-18T16:58:22;0.70;99.90
23721;DHT22;42950;52.134;5.578;2022-12-18T17:00:48;0.70;99.90
23721;DHT22;42950;52.134;5.578;2022-12-18T17:03:13;0.80;99.90
23721;DHT22;42950;52.134;5.578;2022-12-18T17:05:39;0.80;99.90
23721;DHT22;42950;52.134;5.578;2022-12-18T17:08:05;0.80;99.90
23721;DHT22;42950;52.134;5.578;2022-12-18T17:10:30;0.80;99.90
23721;DHT22;42950;52.134;5.578;2022-12-18T17:12:56;0.80;99.90
23721;DHT22;42950;52.134;5.578;2022-12-18T17:15:21;0.80;99.90
23721;DHT22;42950;52.134;5.578;2022-12-18T17:17:47;0.70;99.90
23721;DHT22;42950;52.134;5.578;2022-12-18T17:20:13;0.70;99.90
23721;DHT22;42950;52.134;5.578;2022-12-18T17:22:38;0.70;99.90
23721;DHT22;42950;52.134;5.578;2022-12-18T17:25:04;0.70;99.90
23721;DHT22;42950;52.134;5.578;2022-12-18T17:27:30;0.70;99.90
23721;DHT22;42950;52.134;5.578;2022-12-18T17:29:56;0.70;99.90
23721;DHT22;42950;52.134;5.578;2022-12-18T17:32:21;0.80;99.90
23721;DHT22;42950;52.134;5.578;2022-12-18T17:34:47;0.80;99.90
23721;DHT22;42950;52.134;5.578;2022-12-18T17:37:12;0.70;99.90
23721;DHT22;42950;52.134;5.578;2022-12-18T17:39:38;0.80;99.90
23721;DHT22;42950;52.134;5.578;2022-12-18T17:42:03;0.80;99.90
23721;DHT22;42950;52.134;5.578;2022-12-18T17:44:29;0.80;99.90
23721;DHT22;42950;52.134;5.578;2022-12-18T17:46:55;0.80;99.90
23721;DHT22;42950;52.134;5.578;2022-12-18T17:49:20;0.80;99.90
23721;DHT22;42950;52.134;5.578;2022-12-18T17:51:46;0.80;99.90
23721;DHT22;42950;52.134;5.578;2022-12-18T17:54:11;0.80;99.90
23721;DHT22;42950;52.134;5.578;2022-12-18T17:56:37;0.80;99.90
23721;DHT22;42950;52.134;5.578;2022-12-18T17:59:03;0.80;99.90
23721;DHT22;42950;52.134;5.578;2022-12-18T18:01:29;0.80;99.90